PDT,Max TemperatureF,Mean TemperatureF,Min TemperatureF,Max Dew PointF,MeanDew PointF,Min DewpointF,Max Humidity, Mean Humidity, Min Humidity, Max Sea Level PressureIn, Mean Sea Level PressureIn, Min Sea Level PressureIn, Max VisibilityMiles, Mean VisibilityMiles, Min VisibilityMiles, Max Wind SpeedMPH, Mean Wind SpeedMPH, Max Gust SpeedMPH,PrecipitationIn, CloudCover, Events, WindDirDegrees
2013-5-1,59,48,37,46,42,36,100,75,47,30.44,30.40,30.35,10,10,5,29,11,35,0.00,0,,5
2013-5-2,70,55,39,48,45,39,100,74,37,30.36,30.30,30.26,10,10,7,27,12,35,0.00,0,,359
2013-5-3,63,53,43,50,47,43,100,82,60,30.30,30.21,30.09,10,8,0,28,12,35,0.00,1,,1
2013-5-4,86,65,43,54,44,34,100,58,23,30.10,29.91,29.75,10,8,0,16,6,24,0.00,1,,17
2013-5-5,84,69,54,52,43,34,89,47,23,29.87,29.74,29.65,10,10,9,21,11,25,0.00,0,,95
2013-5-6,64,58,52,55,52,50,100,87,67,30.00,29.93,29.87,10,10,6,15,8,,0.00,2,,206
2013-5-7,59,56,52,55,53,52,100,91,80,30.11,30.04,29.98,10,10,5,14,7,,0.00,8,,225
2013-5-8,61,57,52,54,50,48,96,83,67,30.21,30.15,30.10,10,10,10,14,6,,0.00,5,,290
2013-5-9,59,56,52,52,50,48,96,88,80,30.24,30.20,30.15,10,10,10,20,8,22,0.00,6,,352
2013-5-10,57,54,50,52,50,48,100,90,83,30.29,30.26,30.24,10,10,5,12,4,,0.00,8,,274
2013-5-11,68,58,48,55,51,46,100,79,52,30.28,30.16,30.10,10,10,10,10,4,,0.00,1,,262
2013-5-12,66,60,54,55,55,54,100,84,67,30.19,30.16,30.13,10,10,9,14,5,20,0.00,7,,222
2013-5-13,63,58,52,55,54,50,100,94,78,30.26,30.19,30.12,10,7,1,17,7,18,0.00,6,,245
2013-5-14,63,55,46,52,48,46,100,81,60,30.25,30.21,30.17,10,10,2,21,8,23,0.00,2,,5
2013-5-15,64,56,48,54,49,45,100,82,56,30.17,30.11,30.04,10,10,4,15,7,18,0.04,6,,173
2013-5-16,61,58,54,54,52,50,100,88,72,30.05,30.02,30.00,10,10,2,13,8,17,0.05,7,,216
2013-5-17,61,56,50,54,50,48,100,85,64,30.16,30.09,30.04,10,10,3,14,6,,0.01,5,,221
2013-5-18,61,55,48,54,52,46,100,93,72,30.36,30.23,30.14,10,9,1,20,8,27,0.05,7,,200
2013-5-19,61,57,52,54,50,48,100,85,67,30.45,30.40,30.34,10,9,2,28,16,35,0.02,5,,355
2013-5-20,61,52,43,52,49,43,100,86,72,30.36,30.19,30.03,10,8,0,20,9,28,0.00,3,,352
2013-5-21,55,51,46,52,46,39,100,87,55,30.12,30.02,29.90,10,9,2,22,12,30,0.44,7,,260
2013-5-22,52,48,43,48,45,41,100,93,82,30.11,30.08,30.07,10,7,3,15,8,23,2.23,8,,203
2013-5-23,59,52,45,52,48,43,100,90,67,30.10,30.08,30.05,10,10,5,17,9,23,0.27,7,,202
2013-5-24,57,52,46,50,48,45,100,86,72,30.16,30.13,30.09,10,10,5,12,6,16,0.03,6,,241
2013-5-25,61,53,45,54,50,45,100,91,72,30.13,30.06,30.00,10,7,0,15,8,,0.34,6,,187
2013-5-26,61,57,52,54,52,50,100,91,72,30.12,30.07,30.00,10,9,2,15,9,20,0.07,8,,225
2013-5-27,64,59,54,61,55,52,100,96,84,30.02,29.89,29.82,10,7,1,18,10,31,0.55,8,,183
2013-5-28,63,58,52,57,53,48,100,89,67,30.02,29.94,29.78,10,9,3,17,8,27,0.24,7,,207
2013-5-29,61,57,52,55,53,50,100,91,75,30.13,29.97,29.76,10,9,3,20,12,36,0.03,8,,238
2013-5-30,61,54,46,54,50,45,100,87,64,30.29,30.20,30.13,10,10,4,12,6,,0.04,5,,158
2013-5-31,63,54,45,52,49,45,100,85,64,30.33,30.29,30.26,10,9,0,21,10,29,0.00,2,,16